createdAt,value
2018-08-24T00:02:18.841Z,20.54
2018-08-24T00:05:43.550Z,20.29
2018-08-24T00:09:15.440Z,20.60
2018-08-24T00:12:40.078Z,19.90
2018-08-24T00:16:04.816Z,20.35
2018-08-24T00:19:29.528Z,20.15
2018-08-24T00:22:54.182Z,20.30
2018-08-24T00:26:18.827Z,20.30
2018-08-24T00:29:43.534Z,19.91
2018-08-24T00:33:08.194Z,19.87
2018-08-24T00:36:32.932Z,20.16
2018-08-24T00:39:57.595Z,20.16
2018-08-24T00:43:22.234Z,20.53
2018-08-24T00:46:46.873Z,20.65
2018-08-24T00:50:11.517Z,20.09
2018-08-24T00:53:38.345Z,21.19
2018-08-24T00:57:03.073Z,20.30
2018-08-24T01:00:32.871Z,19.78
2018-08-24T01:03:57.530Z,19.08
2018-08-24T01:07:22.267Z,19.76
2018-08-24T01:10:46.886Z,19.48
2018-08-24T01:14:11.575Z,19.90
2018-08-24T01:17:41.591Z,19.96
2018-08-24T01:21:06.341Z,20.18
2018-08-24T01:24:31.480Z,20.96
2018-08-24T01:27:56.121Z,20.78
2018-08-24T01:31:20.925Z,20.90
2018-08-24T01:34:45.581Z,20.53
2018-08-24T01:38:10.509Z,20.77
2018-08-24T01:41:35.123Z,20.47
2018-08-24T01:44:59.827Z,20.74
2018-08-24T01:48:24.839Z,20.25
2018-08-24T01:51:49.495Z,20.20
2018-08-24T01:55:14.159Z,20.18
2018-08-24T01:58:38.890Z,21.82
2018-08-24T02:02:03.617Z,21.23
2018-08-24T02:05:28.282Z,20.86
2018-08-24T02:08:52.924Z,21.00
2018-08-24T02:12:22.929Z,20.18
2018-08-24T02:15:48.288Z,21.05
2018-08-24T02:19:15.118Z,20.56
2018-08-24T02:22:39.739Z,19.93
2018-08-24T02:26:04.356Z,20.01
2018-08-24T02:29:29.043Z,20.21
2018-08-24T02:32:53.637Z,19.56
2018-08-24T02:36:18.265Z,19.56
2018-08-24T02:39:42.912Z,18.68
2018-08-24T02:43:07.582Z,18.51
2018-08-24T02:46:32.207Z,18.90
2018-08-24T02:49:56.905Z,19.87
2018-08-24T02:53:21.559Z,19.65
2018-08-24T02:56:46.223Z,18.81
2018-08-24T03:00:11.047Z,19.16
2018-08-24T03:03:35.701Z,19.20
2018-08-24T03:07:00.391Z,19.65
2018-08-24T03:10:25.003Z,19.62
2018-08-24T03:13:49.732Z,19.43
2018-08-24T03:17:19.695Z,19.28
2018-08-24T03:20:44.357Z,18.98
2018-08-24T03:24:09.044Z,18.72
2018-08-24T03:27:33.680Z,19.95
2018-08-24T03:30:58.335Z,19.48
2018-08-24T03:34:22.951Z,18.73
2018-08-24T03:37:47.601Z,18.73
2018-08-24T03:41:12.268Z,19.02
2018-08-24T03:44:36.927Z,19.21
2018-08-24T03:48:01.578Z,19.43
2018-08-24T03:51:26.200Z,20.76
2018-08-24T03:54:50.818Z,21.81
2018-08-24T03:58:15.455Z,20.89
2018-08-24T04:01:40.089Z,20.38
2018-08-24T04:05:04.800Z,20.88
2018-08-24T04:08:29.429Z,19.88
2018-08-24T04:11:54.061Z,19.97
2018-08-24T04:15:18.730Z,20.06
2018-08-24T04:18:43.446Z,20.59
2018-08-24T04:22:08.129Z,20.21
2018-08-24T04:25:32.837Z,19.55
2018-08-24T04:28:57.494Z,19.62
2018-08-24T04:32:22.174Z,20.41
2018-08-24T04:35:46.897Z,19.96
2018-08-24T04:39:12.704Z,19.89
2018-08-24T04:42:37.363Z,20.15
2018-08-24T04:46:02.005Z,20.28
2018-08-24T04:49:27.582Z,20.11
2018-08-24T04:52:52.200Z,19.96
2018-08-24T04:56:16.804Z,20.11
2018-08-24T04:59:41.502Z,21.12
2018-08-24T05:03:06.438Z,20.96
2018-08-24T05:06:31.104Z,21.83
2018-08-24T05:09:55.724Z,22.02
2018-08-24T05:13:20.350Z,21.40
2018-08-24T05:16:44.990Z,20.92
2018-08-24T05:20:09.722Z,21.38
2018-08-24T05:23:34.506Z,21.73
2018-08-24T05:26:59.278Z,21.79
2018-08-24T05:30:23.943Z,20.93
2018-08-24T05:33:48.600Z,21.24
2018-08-24T05:37:13.270Z,20.28
2018-08-24T05:40:38.104Z,21.15
2018-08-24T05:44:02.786Z,21.42
2018-08-24T05:47:27.488Z,20.37
2018-08-24T05:50:52.153Z,20.11
2018-08-24T05:54:16.837Z,20.04
2018-08-24T05:57:41.485Z,20.04
2018-08-24T06:01:06.227Z,20.21
2018-08-24T06:04:30.884Z,20.16
2018-08-24T06:07:55.606Z,21.56
2018-08-24T06:11:20.361Z,22.05
2018-08-24T06:14:45.138Z,22.64
2018-08-24T06:18:09.824Z,22.01
2018-08-24T06:21:34.470Z,22.55
2018-08-24T06:24:59.159Z,20.09
2018-08-24T06:28:23.983Z,20.83
2018-08-24T06:31:48.758Z,21.71
2018-08-24T06:35:14.153Z,21.49
2018-08-24T06:38:38.812Z,22.52
2018-08-24T06:42:03.706Z,22.35
2018-08-24T06:45:28.407Z,22.69
2018-08-24T06:48:53.165Z,21.95
2018-08-24T06:52:17.805Z,22.34
2018-08-24T06:55:42.477Z,21.89
2018-08-24T06:59:07.125Z,22.11
2018-08-24T07:02:31.845Z,21.71
2018-08-24T07:05:56.660Z,21.54
2018-08-24T07:09:21.332Z,21.98
2018-08-24T07:12:46.170Z,21.74
2018-08-24T07:16:11.001Z,21.42
2018-08-24T07:19:35.742Z,22.03
2018-08-24T07:23:00.417Z,21.67
2018-08-24T07:26:25.098Z,22.13
2018-08-24T07:29:49.858Z,22.16
2018-08-24T07:33:14.622Z,22.30
2018-08-24T07:36:39.354Z,22.01
2018-08-24T07:40:04.278Z,22.54
2018-08-24T07:43:28.917Z,21.95
2018-08-24T07:46:53.623Z,22.18
2018-08-24T07:50:18.328Z,22.15
2018-08-24T07:53:43.095Z,21.30
2018-08-24T07:57:07.886Z,21.86
2018-08-24T08:00:32.583Z,21.68
2018-08-24T08:03:58.231Z,21.97
2018-08-24T08:07:22.873Z,21.99
2018-08-24T08:10:47.587Z,22.21
2018-08-24T08:14:12.344Z,22.22
2018-08-24T08:17:38.091Z,22.63
2018-08-24T08:21:02.875Z,22.13
2018-08-24T08:24:28.582Z,21.56
2018-08-24T08:27:53.287Z,22.36
2018-08-24T08:31:17.980Z,22.19
2018-08-24T08:34:48.078Z,22.07
2018-08-24T08:38:12.872Z,22.32
2018-08-24T08:41:37.645Z,22.61
2018-08-24T08:45:02.476Z,22.51
2018-08-24T08:48:27.199Z,22.90
2018-08-24T08:51:51.805Z,22.64
2018-08-24T08:55:16.483Z,22.27
2018-08-24T08:58:41.098Z,23.11
2018-08-24T09:02:06.141Z,23.59
2018-08-24T09:05:30.851Z,23.33
2018-08-24T09:08:55.572Z,22.86
2018-08-24T09:12:20.245Z,23.34
2018-08-24T09:19:24.606Z,23.96
2018-08-24T09:22:54.977Z,23.96
2018-08-24T09:26:25.036Z,24.09
2018-08-24T09:29:49.740Z,23.85
2018-08-24T09:33:14.454Z,23.98
2018-08-24T09:36:39.178Z,23.97
2018-08-24T09:40:04.191Z,22.94
2018-08-24T09:43:34.138Z,23.54
2018-08-24T09:47:04.121Z,23.75
2018-08-24T09:50:34.030Z,23.58
2018-08-24T09:54:06.865Z,24.10
2018-08-24T09:57:31.620Z,24.18
2018-08-24T10:01:01.762Z,23.60
2018-08-24T10:04:31.731Z,24.33
2018-08-24T10:08:01.719Z,24.07
2018-08-24T10:11:26.395Z,24.21
2018-08-24T10:14:51.138Z,24.55
2018-08-24T10:18:15.884Z,24.75
2018-08-24T10:21:40.632Z,24.35
2018-08-24T10:25:05.345Z,24.75
2018-08-24T10:28:30.050Z,25.09
2018-08-24T10:31:54.794Z,25.19
2018-08-24T10:35:19.542Z,24.88
2018-08-24T10:38:44.283Z,25.14
2018-08-24T10:42:09.000Z,24.75
2018-08-24T10:45:34.079Z,24.77
2018-08-24T10:48:59.466Z,24.93
2018-08-24T10:52:24.380Z,25.03
2018-08-24T10:55:49.270Z,25.20
2018-08-24T10:59:13.861Z,25.12
2018-08-24T11:02:38.566Z,24.70
2018-08-24T11:06:03.558Z,24.84
2018-08-24T11:09:28.836Z,24.01
2018-08-24T11:12:53.746Z,23.79
2018-08-24T11:16:19.472Z,23.92
2018-08-24T11:19:45.447Z,23.80
2018-08-24T11:23:12.093Z,23.58
2018-08-24T11:26:37.306Z,23.33
2018-08-24T11:30:03.049Z,23.49
2018-08-24T11:33:28.283Z,23.36
2018-08-24T11:36:53.562Z,23.78
2018-08-24T11:40:18.637Z,24.22
2018-08-24T11:43:44.672Z,23.49
2018-08-24T11:47:09.692Z,23.37
2018-08-24T11:50:36.000Z,23.41
2018-08-24T11:54:01.401Z,23.19
2018-08-24T11:57:26.040Z,23.21
2018-08-24T12:00:50.761Z,22.88
2018-08-24T12:04:15.583Z,22.89
2018-08-24T12:07:40.322Z,23.29
2018-08-24T12:11:04.976Z,23.23
2018-08-24T12:14:29.874Z,23.15
2018-08-24T12:17:55.049Z,23.13
2018-08-24T12:21:19.890Z,22.99
2018-08-24T12:24:45.437Z,23.63
2018-08-24T12:28:10.073Z,23.42
2018-08-24T12:31:34.873Z,23.04
2018-08-24T12:34:59.578Z,23.40
2018-08-24T12:38:24.226Z,23.43
2018-08-24T12:41:48.843Z,23.73
2018-08-24T12:45:13.622Z,23.54
2018-08-24T12:48:38.387Z,23.64
2018-08-24T12:52:03.532Z,23.58
2018-08-24T12:55:28.165Z,23.95
2018-08-24T12:58:53.268Z,23.94
2018-08-24T13:02:18.155Z,24.16
2018-08-24T13:05:42.956Z,23.59
2018-08-24T13:09:10.331Z,23.93
2018-08-24T13:12:34.992Z,23.70
2018-08-24T13:15:59.723Z,23.45
2018-08-24T13:19:24.320Z,23.28
2018-08-24T13:22:48.952Z,23.58
2018-08-24T13:26:13.622Z,23.46
2018-08-24T13:29:38.344Z,23.69
2018-08-24T13:33:03.010Z,23.87
2018-08-24T13:36:27.704Z,24.07
2018-08-24T13:39:52.330Z,24.06
2018-08-24T13:43:17.011Z,23.85
2018-08-24T13:46:41.632Z,24.01
2018-08-24T13:50:06.473Z,24.03
2018-08-24T13:53:31.167Z,23.93
2018-08-24T13:56:55.802Z,24.26
2018-08-24T14:00:20.511Z,24.34
2018-08-24T14:03:45.294Z,24.03
2018-08-24T14:07:09.934Z,24.16
2018-08-24T14:10:34.647Z,24.29
2018-08-24T14:13:59.317Z,24.13
2018-08-24T14:17:26.043Z,23.68
2018-08-24T14:20:50.755Z,23.22
2018-08-24T14:24:15.466Z,23.18
2018-08-24T14:27:40.129Z,23.17
2018-08-24T14:31:04.778Z,23.33
2018-08-24T14:34:29.464Z,22.87
2018-08-24T14:37:54.238Z,23.03
2018-08-24T14:41:18.934Z,22.86
2018-08-24T14:44:43.589Z,22.20
2018-08-24T14:48:08.290Z,21.75
2018-08-24T14:51:32.964Z,21.72
2018-08-24T14:54:57.649Z,21.99
2018-08-24T14:58:22.349Z,21.95
2018-08-24T15:01:47.054Z,22.06
2018-08-24T15:05:12.542Z,21.74
2018-08-24T15:08:37.268Z,21.68
2018-08-24T15:12:01.917Z,21.38
2018-08-24T15:15:26.589Z,21.24
2018-08-24T15:18:51.282Z,21.25
2018-08-24T15:22:16.406Z,21.28
2018-08-24T15:25:41.094Z,21.63
2018-08-24T15:29:05.875Z,21.00
2018-08-24T15:32:30.607Z,21.27
2018-08-24T15:35:55.277Z,20.54
2018-08-24T15:39:19.976Z,20.69
2018-08-24T15:42:44.722Z,20.62
2018-08-24T15:46:09.445Z,20.20
2018-08-24T15:49:34.122Z,19.69
2018-08-24T15:52:58.785Z,20.11
2018-08-24T15:56:23.458Z,20.29
2018-08-24T15:59:48.085Z,19.54
2018-08-24T16:03:12.787Z,19.80
2018-08-24T16:06:37.475Z,19.26
2018-08-24T16:10:02.234Z,19.96
2018-08-24T16:13:27.534Z,19.54
2018-08-24T16:16:52.177Z,19.57
2018-08-24T16:20:16.930Z,19.59
2018-08-24T16:23:41.651Z,19.42
2018-08-24T16:27:07.996Z,19.13
2018-08-24T16:30:32.696Z,19.23
2018-08-24T16:33:57.378Z,18.99
2018-08-24T16:37:22.086Z,19.00
2018-08-24T16:40:46.742Z,18.80
2018-08-24T16:44:11.435Z,18.87
2018-08-24T16:47:36.650Z,18.89
2018-08-24T16:51:01.642Z,18.72
2018-08-24T16:54:26.644Z,18.72
2018-08-24T16:57:52.416Z,18.56
2018-08-24T17:01:17.098Z,19.34
2018-08-24T17:04:41.802Z,18.74
2018-08-24T17:08:06.904Z,18.87
2018-08-24T17:11:31.716Z,18.73
2018-08-24T17:14:56.376Z,18.49
2018-08-24T17:18:21.075Z,18.58
2018-08-24T17:21:45.737Z,19.03
2018-08-24T17:25:10.384Z,18.85
2018-08-24T17:28:35.185Z,19.01
2018-08-24T17:31:59.775Z,18.78
2018-08-24T17:35:24.382Z,19.16
2018-08-24T17:38:49.090Z,19.11
2018-08-24T17:42:13.832Z,19.28
2018-08-24T17:45:38.526Z,18.95
2018-08-24T17:49:03.758Z,18.88
2018-08-24T17:52:28.468Z,18.62
2018-08-24T17:55:53.230Z,18.66
2018-08-24T17:59:17.918Z,18.80
2018-08-24T18:02:42.750Z,18.70
2018-08-24T18:06:07.451Z,18.50
2018-08-24T18:09:32.313Z,18.42
2018-08-24T18:12:57.126Z,18.67
2018-08-24T18:16:21.824Z,18.42
2018-08-24T18:19:46.628Z,18.37
2018-08-24T18:23:11.342Z,18.44
2018-08-24T18:26:36.169Z,19.29
2018-08-24T18:30:00.829Z,18.77
2018-08-24T18:33:25.501Z,18.28
2018-08-24T18:36:50.197Z,18.37
2018-08-24T18:40:14.900Z,19.03
2018-08-24T18:43:39.615Z,18.40
2018-08-24T18:47:04.423Z,18.52
2018-08-24T18:50:29.152Z,18.65
2018-08-24T18:53:53.803Z,18.24
2018-08-24T18:57:18.470Z,18.02
2018-08-24T19:00:43.114Z,18.18
2018-08-24T19:04:07.802Z,18.04
2018-08-24T19:07:32.799Z,17.99
2018-08-24T19:11:02.793Z,18.08
2018-08-24T19:14:27.539Z,18.16
2018-08-24T19:17:57.456Z,18.11
2018-08-24T19:21:27.285Z,17.98
2018-08-24T19:24:52.004Z,17.92
2018-08-24T19:28:22.078Z,18.02
2018-08-24T19:31:46.899Z,18.32
2018-08-24T19:35:11.754Z,18.38
2018-08-24T19:38:36.442Z,18.16
2018-08-24T19:42:06.464Z,17.89
2018-08-24T19:45:31.696Z,17.94
2018-08-24T19:49:01.562Z,18.11
2018-08-24T19:52:26.308Z,18.42
2018-08-24T19:55:51.067Z,18.08
2018-08-24T19:59:16.847Z,18.51
2018-08-24T20:02:41.531Z,18.17
2018-08-24T20:06:11.592Z,18.34
2018-08-24T20:09:41.680Z,17.90
2018-08-24T20:13:07.465Z,17.82
2018-08-24T20:16:37.552Z,17.68
2018-08-24T20:20:02.287Z,18.00
2018-08-24T20:23:26.971Z,17.90
2018-08-24T20:26:51.611Z,17.90
2018-08-24T20:30:16.348Z,17.30
2018-08-24T20:33:41.031Z,17.81
2018-08-24T20:37:05.840Z,17.85
2018-08-24T20:40:30.471Z,18.08
2018-08-24T20:43:55.134Z,17.69
2018-08-24T20:47:19.872Z,18.24
2018-08-24T20:50:44.518Z,18.05
2018-08-24T20:54:09.116Z,17.63
2018-08-24T20:57:33.759Z,17.50
2018-08-24T21:00:58.525Z,17.55
2018-08-24T21:04:23.405Z,17.61
2018-08-24T21:07:48.326Z,17.31
2018-08-24T21:11:12.992Z,17.48
2018-08-24T21:14:37.725Z,17.37
2018-08-24T21:18:02.355Z,17.54
2018-08-24T21:21:26.993Z,17.31
2018-08-24T21:24:51.644Z,17.28
2018-08-24T21:28:16.277Z,17.53
2018-08-24T21:31:41.258Z,17.45
2018-08-24T21:35:06.712Z,17.77
2018-08-24T21:38:31.347Z,17.62
2018-08-24T21:41:56.051Z,17.42
2018-08-24T21:45:20.904Z,17.25
2018-08-24T21:48:45.557Z,17.55
2018-08-24T21:52:10.327Z,17.56
2018-08-24T21:55:35.117Z,17.79
2018-08-24T21:58:59.840Z,17.46
2018-08-24T22:02:25.152Z,17.80
2018-08-24T22:05:50.172Z,17.43
2018-08-24T22:09:14.891Z,17.50
2018-08-24T22:12:39.828Z,17.62
2018-08-24T22:16:04.520Z,17.57
2018-08-24T22:19:29.198Z,18.55
2018-08-24T22:22:53.981Z,17.82
2018-08-24T22:26:18.616Z,17.77
2018-08-24T22:29:43.263Z,17.39
2018-08-24T22:33:07.904Z,17.64
2018-08-24T22:36:32.566Z,17.54
2018-08-24T22:39:57.241Z,17.62
2018-08-24T22:43:27.593Z,17.81
2018-08-24T22:46:52.192Z,17.45
2018-08-24T22:50:16.865Z,17.37
2018-08-24T22:53:41.536Z,17.41
2018-08-24T22:57:06.315Z,17.21
2018-08-24T23:00:31.062Z,17.47
2018-08-24T23:03:55.700Z,17.61
2018-08-24T23:07:20.342Z,17.97
2018-08-24T23:10:44.982Z,17.62
2018-08-24T23:14:09.820Z,17.89
2018-08-24T23:17:34.470Z,17.33
2018-08-24T23:20:59.131Z,17.38
2018-08-24T23:24:23.793Z,17.11
2018-08-24T23:27:48.492Z,17.61
2018-08-24T23:31:13.128Z,17.49
2018-08-24T23:34:37.738Z,17.17
2018-08-24T23:38:02.454Z,16.96
2018-08-24T23:41:28.081Z,17.04
2018-08-24T23:44:52.742Z,17.44
2018-08-24T23:48:17.414Z,17.29
2018-08-24T23:51:42.076Z,17.30
2018-08-24T23:55:09.593Z,17.26
2018-08-24T23:58:34.270Z,18.87
